createdAt,value
2017-08-24T00:00:05.905Z,19.20
2017-08-24T00:02:33.772Z,19.10
2017-08-24T00:05:01.639Z,19.00
2017-08-24T00:07:29.507Z,19.00
2017-08-24T00:09:57.374Z,18.90
2017-08-24T00:12:25.240Z,18.90
2017-08-24T00:14:53.108Z,18.90
2017-08-24T00:17:20.979Z,18.80
2017-08-24T00:19:48.846Z,18.80
2017-08-24T00:22:16.710Z,18.80
2017-08-24T00:24:44.577Z,18.80
2017-08-24T00:27:12.445Z,18.80
2017-08-24T00:29:40.312Z,18.80
2017-08-24T00:32:08.179Z,18.80
2017-08-24T00:34:36.045Z,18.80
2017-08-24T00:37:03.913Z,18.80
2017-08-24T00:39:31.781Z,18.80
2017-08-24T00:41:59.648Z,18.80
2017-08-24T00:44:27.521Z,18.70
2017-08-24T00:46:55.383Z,18.70
2017-08-24T00:49:23.247Z,18.70
2017-08-24T00:51:51.117Z,18.70
2017-08-24T00:54:18.984Z,18.70
2017-08-24T00:56:46.852Z,18.70
2017-08-24T00:59:14.718Z,18.70
2017-08-24T01:01:42.585Z,18.70
2017-08-24T01:04:10.453Z,18.70
2017-08-24T01:06:38.323Z,18.70
2017-08-24T01:09:06.188Z,18.70
2017-08-24T01:11:34.054Z,18.80
2017-08-24T01:14:01.921Z,18.80
2017-08-24T01:16:29.789Z,18.80
2017-08-24T01:18:57.657Z,18.60
2017-08-24T01:21:25.523Z,18.70
2017-08-24T01:23:53.391Z,18.70
2017-08-24T01:26:21.258Z,18.80
2017-08-24T01:28:49.125Z,18.80
2017-08-24T01:31:16.993Z,18.80
2017-08-24T01:33:44.867Z,18.90
2017-08-24T01:36:12.728Z,18.90
2017-08-24T01:38:40.595Z,18.90
2017-08-24T01:41:08.462Z,18.90
2017-08-24T01:43:36.331Z,18.90
2017-08-24T01:46:04.196Z,18.90
2017-08-24T01:48:32.064Z,19.00
2017-08-24T01:50:59.931Z,19.00
2017-08-24T01:53:27.798Z,18.90
2017-08-24T01:55:55.665Z,19.00
2017-08-24T01:58:23.532Z,18.90
2017-08-24T02:00:51.400Z,18.90
2017-08-24T02:03:19.267Z,18.90
2017-08-24T02:05:47.133Z,18.80
2017-08-24T02:08:15.001Z,18.80
2017-08-24T02:10:42.793Z,18.80
2017-08-24T02:13:10.633Z,18.80
2017-08-24T02:15:38.501Z,18.80
2017-08-24T02:18:06.315Z,18.90
2017-08-24T02:20:34.132Z,18.90
2017-08-24T02:23:02.000Z,18.80
2017-08-24T02:25:29.867Z,18.90
2017-08-24T02:27:57.734Z,18.90
2017-08-24T02:30:25.605Z,18.80
2017-08-24T02:32:53.318Z,18.80
2017-08-24T02:35:21.131Z,18.70
2017-08-24T02:37:48.998Z,18.70
2017-08-24T02:40:16.770Z,18.70
2017-08-24T02:42:44.630Z,18.70
2017-08-24T02:45:12.498Z,18.70
2017-08-24T02:47:40.366Z,18.70
2017-08-24T02:50:08.233Z,18.70
2017-08-24T02:52:36.100Z,18.70
2017-08-24T02:55:03.968Z,18.60
2017-08-24T02:57:31.855Z,18.50
2017-08-24T02:59:59.701Z,18.50
2017-08-24T03:02:27.569Z,18.50
2017-08-24T03:04:55.436Z,18.50
2017-08-24T03:07:23.308Z,18.50
2017-08-24T03:09:51.170Z,18.50
2017-08-24T03:12:19.039Z,18.50
2017-08-24T03:14:46.905Z,18.50
2017-08-24T03:17:14.775Z,18.50
2017-08-24T03:19:42.644Z,18.50
2017-08-24T03:22:10.508Z,18.50
2017-08-24T03:24:38.379Z,18.50
2017-08-24T03:27:06.242Z,18.50
2017-08-24T03:29:34.109Z,18.60
2017-08-24T03:32:01.975Z,18.60
2017-08-24T03:34:29.843Z,18.60
2017-08-24T03:36:57.710Z,18.60
2017-08-24T03:39:25.577Z,18.60
2017-08-24T03:41:54.675Z,18.50
2017-08-24T03:44:22.539Z,18.60
2017-08-24T03:46:50.408Z,18.50
2017-08-24T03:49:18.275Z,18.50
2017-08-24T03:51:46.142Z,18.50
2017-08-24T03:54:14.010Z,18.50
2017-08-24T03:56:41.877Z,18.40
2017-08-24T03:59:09.744Z,18.40
2017-08-24T04:01:37.611Z,18.30
2017-08-24T04:04:05.478Z,18.40
2017-08-24T04:06:33.346Z,18.30
2017-08-24T04:09:01.213Z,18.40
2017-08-24T04:11:29.081Z,18.40
2017-08-24T04:13:56.948Z,18.40
2017-08-24T04:16:24.815Z,18.40
2017-08-24T04:18:52.682Z,18.40
2017-08-24T04:21:20.549Z,18.40
2017-08-24T04:23:48.416Z,18.40
2017-08-24T04:26:16.490Z,18.50
2017-08-24T04:28:44.361Z,18.50
2017-08-24T04:31:12.224Z,18.50
2017-08-24T04:33:40.100Z,18.50
2017-08-24T04:36:07.958Z,18.60
2017-08-24T04:38:35.825Z,18.60
2017-08-24T04:41:03.571Z,18.70
2017-08-24T04:43:31.457Z,18.70
2017-08-24T04:45:59.324Z,18.70
2017-08-24T04:48:27.192Z,18.80
2017-08-24T04:50:55.059Z,18.80
2017-08-24T04:53:22.929Z,18.90
2017-08-24T04:55:50.792Z,18.90
2017-08-24T04:58:18.660Z,19.00
2017-08-24T05:00:46.527Z,19.00
2017-08-24T05:03:14.395Z,19.10
2017-08-24T05:05:42.262Z,19.20
2017-08-24T05:08:10.130Z,19.20
2017-08-24T05:10:38.000Z,19.30
2017-08-24T05:13:05.862Z,19.30
2017-08-24T05:15:33.731Z,19.40
2017-08-24T05:18:01.598Z,19.50
2017-08-24T05:20:29.465Z,19.50
2017-08-24T05:22:57.338Z,19.60
2017-08-24T05:25:25.200Z,19.60
2017-08-24T05:27:53.067Z,19.70
2017-08-24T05:30:20.935Z,19.80
2017-08-24T05:32:48.802Z,19.90
2017-08-24T05:35:16.669Z,19.90
2017-08-24T05:37:44.536Z,20.00
2017-08-24T05:40:12.403Z,20.00
2017-08-24T05:42:40.270Z,20.10
2017-08-24T05:45:08.138Z,20.20
2017-08-24T05:47:36.005Z,20.20
2017-08-24T05:50:03.873Z,20.30
2017-08-24T05:52:31.739Z,20.20
2017-08-24T05:54:59.607Z,20.20
2017-08-24T05:57:27.474Z,20.20
2017-08-24T05:59:55.342Z,20.30
2017-08-24T06:02:23.210Z,20.20
2017-08-24T06:04:51.075Z,20.20
2017-08-24T06:07:18.943Z,20.10
2017-08-24T06:09:46.809Z,20.20
2017-08-24T06:12:14.678Z,20.30
2017-08-24T06:14:42.544Z,20.30
2017-08-24T06:17:10.414Z,20.50
2017-08-24T06:19:38.279Z,20.80
2017-08-24T06:22:06.147Z,21.00
2017-08-24T06:24:34.014Z,21.40
2017-08-24T06:27:01.881Z,21.70
2017-08-24T06:29:29.753Z,22.20
2017-08-24T06:31:57.620Z,22.20
2017-08-24T06:34:25.485Z,22.30
2017-08-24T06:36:53.384Z,22.30
2017-08-24T06:39:21.219Z,22.40
2017-08-24T06:41:49.089Z,22.40
2017-08-24T06:44:16.957Z,22.40
2017-08-24T06:46:44.820Z,22.30
2017-08-24T06:49:12.689Z,22.10
2017-08-24T06:51:40.558Z,22.30
2017-08-24T06:54:08.421Z,22.20
2017-08-24T06:56:36.288Z,22.40
2017-08-24T06:59:04.156Z,22.60
2017-08-24T07:01:32.024Z,22.90
2017-08-24T07:03:59.890Z,23.30
2017-08-24T07:06:27.757Z,23.70
2017-08-24T07:08:55.625Z,24.10
2017-08-24T07:11:23.491Z,24.50
2017-08-24T07:13:51.359Z,25.10
2017-08-24T07:16:19.227Z,25.80
2017-08-24T07:18:47.093Z,26.50
2017-08-24T07:21:14.961Z,26.80
2017-08-24T07:23:42.756Z,27.10
2017-08-24T07:26:10.593Z,27.20
2017-08-24T07:28:38.461Z,27.10
2017-08-24T07:31:06.328Z,27.00
2017-08-24T07:33:34.195Z,27.10
2017-08-24T07:36:02.063Z,27.20
2017-08-24T07:38:29.930Z,27.40
2017-08-24T07:40:57.796Z,27.70
2017-08-24T07:43:25.664Z,27.50
2017-08-24T07:45:53.530Z,27.50
2017-08-24T07:48:21.399Z,27.50
2017-08-24T07:50:49.266Z,27.40
2017-08-24T07:53:17.133Z,27.40
2017-08-24T07:55:45.000Z,27.10
2017-08-24T07:58:12.867Z,27.10
2017-08-24T08:00:40.734Z,27.30
2017-08-24T08:03:08.602Z,27.60
2017-08-24T08:05:36.469Z,27.90
2017-08-24T08:08:04.341Z,28.20
2017-08-24T08:10:32.204Z,28.30
2017-08-24T08:13:00.071Z,28.30
2017-08-24T08:15:27.938Z,28.10
2017-08-24T08:17:55.805Z,28.00
2017-08-24T08:20:23.672Z,27.90
2017-08-24T08:22:51.540Z,27.90
2017-08-24T08:25:19.407Z,27.70
2017-08-24T08:27:47.274Z,27.60
2017-08-24T08:30:15.141Z,27.50
2017-08-24T08:32:42.941Z,27.30
2017-08-24T08:35:10.774Z,27.30
2017-08-24T08:37:38.641Z,27.20
2017-08-24T08:40:06.508Z,27.10
2017-08-24T08:42:34.379Z,27.00
2017-08-24T08:45:02.243Z,26.90
2017-08-24T08:47:30.109Z,26.80
2017-08-24T08:49:57.978Z,26.80
2017-08-24T08:52:25.844Z,26.90
2017-08-24T08:54:53.712Z,27.00
2017-08-24T08:57:21.579Z,27.30
2017-08-24T08:59:49.446Z,27.40
2017-08-24T09:02:17.314Z,27.40
2017-08-24T09:04:45.185Z,27.30
2017-08-24T09:07:13.048Z,27.30
2017-08-24T09:09:40.915Z,27.30
2017-08-24T09:12:08.782Z,27.30
2017-08-24T09:14:36.649Z,27.50
2017-08-24T09:17:04.517Z,27.50
2017-08-24T09:19:32.389Z,27.60
2017-08-24T09:22:00.251Z,27.60
2017-08-24T09:24:28.118Z,27.80
2017-08-24T09:26:55.986Z,28.10
2017-08-24T09:29:23.853Z,28.30
2017-08-24T09:31:51.721Z,28.40
2017-08-24T09:34:19.588Z,28.50
2017-08-24T09:36:47.381Z,28.60
2017-08-24T09:39:15.221Z,28.70
2017-08-24T09:41:43.087Z,28.90
2017-08-24T09:44:10.955Z,29.10
2017-08-24T09:46:38.822Z,29.40
2017-08-24T09:49:06.688Z,29.70
2017-08-24T09:51:34.556Z,29.90
2017-08-24T09:54:02.423Z,30.00
2017-08-24T09:56:30.295Z,30.30
2017-08-24T09:58:58.164Z,30.50
2017-08-24T10:01:26.026Z,30.60
2017-08-24T10:03:53.897Z,30.60
2017-08-24T10:06:21.763Z,30.90
2017-08-24T10:08:49.633Z,31.20
2017-08-24T10:11:17.496Z,31.40
2017-08-24T10:13:45.364Z,31.20
2017-08-24T10:16:13.230Z,31.10
2017-08-24T10:18:41.096Z,31.00
2017-08-24T10:21:08.963Z,31.00
2017-08-24T10:23:36.830Z,31.10
2017-08-24T10:26:04.698Z,31.10
2017-08-24T10:28:32.587Z,31.20
2017-08-24T10:31:01.279Z,31.40
2017-08-24T10:33:29.118Z,31.30
2017-08-24T10:35:56.990Z,31.50
2017-08-24T10:38:24.853Z,31.60
2017-08-24T10:40:52.721Z,31.70
2017-08-24T10:43:20.588Z,31.60
2017-08-24T10:45:48.454Z,31.60
2017-08-24T10:48:16.322Z,31.60
2017-08-24T10:50:44.188Z,31.80
2017-08-24T10:53:12.057Z,31.90
2017-08-24T10:55:39.928Z,32.10
2017-08-24T10:58:07.791Z,32.20
2017-08-24T11:00:35.658Z,32.30
2017-08-24T11:03:03.525Z,31.90
2017-08-24T11:05:31.393Z,32.10
2017-08-24T11:07:59.262Z,32.10
2017-08-24T11:10:27.127Z,32.10
2017-08-24T11:12:54.993Z,32.30
2017-08-24T11:15:22.861Z,32.20
2017-08-24T11:17:50.740Z,31.80
2017-08-24T11:20:18.597Z,31.90
2017-08-24T11:22:46.469Z,32.00
2017-08-24T11:25:14.331Z,32.00
2017-08-24T11:27:42.197Z,32.10
2017-08-24T11:30:10.065Z,32.10
2017-08-24T11:32:37.932Z,32.10
2017-08-24T11:35:05.798Z,32.20
2017-08-24T11:37:33.510Z,32.20
2017-08-24T11:40:01.329Z,32.20
2017-08-24T11:42:29.195Z,32.00
2017-08-24T11:44:57.087Z,31.90
2017-08-24T11:47:25.750Z,31.80
2017-08-24T11:49:53.617Z,31.80
2017-08-24T11:52:21.484Z,31.60
2017-08-24T11:54:49.353Z,31.10
2017-08-24T11:57:17.219Z,31.10
2017-08-24T11:59:45.086Z,31.10
2017-08-24T12:02:12.953Z,30.80
2017-08-24T12:04:40.820Z,30.70
2017-08-24T12:07:08.689Z,30.80
2017-08-24T12:09:36.555Z,30.70
2017-08-24T12:12:04.422Z,30.80
2017-08-24T12:14:32.290Z,31.00
2017-08-24T12:17:00.159Z,31.10
2017-08-24T12:19:28.023Z,31.20
2017-08-24T12:21:55.891Z,31.40
2017-08-24T12:24:23.757Z,31.40
2017-08-24T12:26:51.625Z,31.40
2017-08-24T12:29:19.496Z,31.30
2017-08-24T12:31:47.360Z,31.50
2017-08-24T12:34:15.226Z,31.70
2017-08-24T12:36:43.094Z,31.90
2017-08-24T12:39:10.961Z,32.10
2017-08-24T12:41:38.830Z,32.40
2017-08-24T12:44:06.696Z,32.50
2017-08-24T12:46:34.563Z,32.60
2017-08-24T12:49:02.431Z,32.70
2017-08-24T12:51:30.299Z,32.60
2017-08-24T12:53:58.166Z,32.40
2017-08-24T12:56:26.033Z,32.00
2017-08-24T12:58:53.899Z,31.80
2017-08-24T13:01:21.767Z,31.60
2017-08-24T13:03:49.634Z,31.80
2017-08-24T13:06:17.500Z,31.90
2017-08-24T13:08:45.369Z,32.00
2017-08-24T13:11:13.236Z,32.20
2017-08-24T13:13:41.108Z,32.40
2017-08-24T13:16:08.969Z,32.40
2017-08-24T13:18:36.837Z,32.30
2017-08-24T13:21:04.705Z,31.80
2017-08-24T13:23:32.572Z,31.80
2017-08-24T13:26:00.440Z,31.80
2017-08-24T13:28:28.312Z,31.90
2017-08-24T13:30:56.176Z,32.00
2017-08-24T13:33:24.040Z,32.20
2017-08-24T13:35:51.915Z,32.40
2017-08-24T13:38:19.780Z,32.20
2017-08-24T13:40:47.644Z,32.20
2017-08-24T13:43:15.514Z,32.20
2017-08-24T13:45:43.379Z,32.40
2017-08-24T13:48:11.264Z,32.50
2017-08-24T13:50:39.112Z,32.70
2017-08-24T13:53:06.978Z,32.90
2017-08-24T13:55:34.846Z,32.90
2017-08-24T13:58:02.713Z,32.90
2017-08-24T14:00:30.581Z,32.60
2017-08-24T14:02:58.449Z,32.10
2017-08-24T14:05:26.314Z,32.00
2017-08-24T14:07:54.181Z,31.90
2017-08-24T14:10:22.050Z,31.80
2017-08-24T14:12:49.916Z,31.50
2017-08-24T14:15:17.784Z,31.50
2017-08-24T14:17:45.650Z,31.50
2017-08-24T14:20:13.518Z,31.40
2017-08-24T14:22:41.386Z,31.40
2017-08-24T14:25:09.252Z,31.40
2017-08-24T14:27:37.119Z,31.50
2017-08-24T14:30:04.987Z,31.60
2017-08-24T14:32:32.853Z,31.60
2017-08-24T14:35:00.721Z,31.60
2017-08-24T14:37:28.588Z,31.60
2017-08-24T14:39:56.456Z,31.60
2017-08-24T14:42:24.322Z,31.50
2017-08-24T14:44:52.190Z,31.20
2017-08-24T14:47:20.057Z,30.90
2017-08-24T14:49:47.924Z,30.60
2017-08-24T14:52:15.791Z,30.20
2017-08-24T14:54:43.660Z,30.00
2017-08-24T14:57:11.526Z,30.00
2017-08-24T14:59:39.393Z,29.90
2017-08-24T15:02:07.260Z,29.80
2017-08-24T15:04:35.127Z,29.80
2017-08-24T15:07:02.995Z,29.90
2017-08-24T15:09:30.863Z,30.00
2017-08-24T15:11:58.730Z,30.10
2017-08-24T15:14:26.599Z,30.10
2017-08-24T15:16:54.463Z,30.30
2017-08-24T15:19:22.332Z,30.30
2017-08-24T15:21:50.198Z,30.30
2017-08-24T15:24:18.066Z,30.30
2017-08-24T15:26:45.933Z,30.40
2017-08-24T15:29:13.805Z,30.40
2017-08-24T15:31:41.667Z,30.40
2017-08-24T15:34:09.535Z,30.40
2017-08-24T15:36:37.402Z,30.40
2017-08-24T15:39:05.218Z,30.10
2017-08-24T15:41:33.037Z,29.90
2017-08-24T15:44:00.900Z,29.60
2017-08-24T15:46:28.769Z,29.40
2017-08-24T15:48:56.635Z,29.20
2017-08-24T15:51:24.502Z,29.00
2017-08-24T15:53:53.293Z,28.80
2017-08-24T15:56:21.159Z,28.70
2017-08-24T15:58:49.026Z,28.70
2017-08-24T16:01:16.893Z,28.70
2017-08-24T16:03:44.760Z,28.60
2017-08-24T16:06:12.628Z,28.60
2017-08-24T16:08:40.495Z,28.50
2017-08-24T16:11:08.362Z,28.50
2017-08-24T16:13:36.229Z,28.40
2017-08-24T16:16:04.097Z,28.20
2017-08-24T16:18:31.964Z,28.10
2017-08-24T16:20:59.831Z,28.00
2017-08-24T16:23:27.699Z,28.00
2017-08-24T16:25:55.568Z,27.90
2017-08-24T16:28:23.432Z,27.70
2017-08-24T16:30:51.299Z,27.50
2017-08-24T16:33:19.167Z,27.50
2017-08-24T16:35:47.034Z,27.50
2017-08-24T16:38:14.901Z,27.50
2017-08-24T16:40:42.696Z,27.40
2017-08-24T16:43:10.533Z,27.40
2017-08-24T16:45:38.402Z,27.30
2017-08-24T16:48:06.268Z,27.30
2017-08-24T16:50:34.135Z,27.20
2017-08-24T16:53:02.002Z,27.10
2017-08-24T16:55:29.869Z,27.10
2017-08-24T16:57:57.737Z,27.10
2017-08-24T17:00:25.605Z,27.20
2017-08-24T17:02:53.471Z,27.10
2017-08-24T17:05:21.354Z,27.10
2017-08-24T17:07:49.220Z,27.20
2017-08-24T17:10:17.074Z,27.20
2017-08-24T17:12:44.941Z,27.30
2017-08-24T17:15:12.811Z,27.30
2017-08-24T17:17:40.678Z,27.30
2017-08-24T17:20:08.550Z,27.20
2017-08-24T17:22:36.411Z,27.10
2017-08-24T17:25:04.277Z,27.10
2017-08-24T17:27:32.145Z,27.00
2017-08-24T17:30:00.011Z,26.90
2017-08-24T17:32:27.878Z,26.80
2017-08-24T17:34:55.746Z,26.60
2017-08-24T17:37:23.613Z,26.50
2017-08-24T17:39:51.479Z,26.40
2017-08-24T17:42:19.348Z,26.30
2017-08-24T17:44:47.214Z,26.20
2017-08-24T17:47:15.080Z,26.20
2017-08-24T17:49:42.949Z,26.10
2017-08-24T17:52:10.816Z,26.10
2017-08-24T17:54:38.682Z,25.90
2017-08-24T17:57:06.550Z,25.80
2017-08-24T17:59:34.420Z,25.80
2017-08-24T18:02:02.286Z,25.70
2017-08-24T18:04:30.151Z,25.60
2017-08-24T18:06:58.019Z,25.50
2017-08-24T18:09:25.886Z,25.40
2017-08-24T18:11:53.755Z,25.30
2017-08-24T18:14:21.621Z,25.20
2017-08-24T18:16:49.489Z,25.10
2017-08-24T18:19:17.356Z,25.00
2017-08-24T18:21:45.222Z,24.80
2017-08-24T18:24:13.090Z,24.70
2017-08-24T18:26:40.957Z,24.40
2017-08-24T18:29:08.824Z,24.30
2017-08-24T18:31:36.691Z,24.20
2017-08-24T18:34:04.574Z,24.00
2017-08-24T18:36:32.426Z,23.90
2017-08-24T18:39:00.294Z,23.70
2017-08-24T18:41:28.161Z,23.40
2017-08-24T18:43:56.028Z,23.40
2017-08-24T18:46:23.894Z,23.10
2017-08-24T18:48:51.761Z,23.10
2017-08-24T18:51:19.630Z,23.00
2017-08-24T18:53:47.496Z,22.90
2017-08-24T18:56:15.298Z,22.80
2017-08-24T18:58:43.128Z,22.70
2017-08-24T19:01:10.996Z,22.60
2017-08-24T19:03:38.863Z,22.50
2017-08-24T19:06:06.731Z,22.40
2017-08-24T19:08:34.597Z,22.30
2017-08-24T19:11:02.465Z,22.30
2017-08-24T19:13:30.331Z,22.20
2017-08-24T19:15:58.200Z,22.10
2017-08-24T19:18:26.070Z,22.00
2017-08-24T19:20:53.937Z,21.90
2017-08-24T19:23:21.802Z,21.70
2017-08-24T19:25:49.667Z,21.40
2017-08-24T19:28:17.535Z,21.40
2017-08-24T19:30:45.402Z,21.40
2017-08-24T19:33:13.270Z,21.30
2017-08-24T19:35:41.137Z,21.30
2017-08-24T19:38:09.824Z,21.10
2017-08-24T19:40:37.795Z,21.00
2017-08-24T19:43:05.762Z,20.80
2017-08-24T19:45:33.834Z,20.70
2017-08-24T19:48:05.667Z,20.70
2017-08-24T19:50:36.001Z,20.70
2017-08-24T19:53:06.301Z,20.70
2017-08-24T19:55:34.319Z,20.70
2017-08-24T19:58:02.182Z,20.60
2017-08-24T20:00:30.049Z,20.30
2017-08-24T20:02:57.917Z,20.30
2017-08-24T20:05:25.786Z,20.20
2017-08-24T20:07:53.577Z,20.30
2017-08-24T20:10:21.416Z,20.20
2017-08-24T20:12:49.386Z,20.10
2017-08-24T20:15:17.259Z,20.00
2017-08-24T20:17:45.120Z,20.10
2017-08-24T20:20:12.987Z,20.10
2017-08-24T20:22:40.856Z,20.00
2017-08-24T20:25:08.645Z,19.80
2017-08-24T20:27:36.486Z,19.70
2017-08-24T20:30:06.047Z,19.80
2017-08-24T20:32:33.970Z,19.80
2017-08-24T20:35:01.828Z,19.80
2017-08-24T20:37:29.696Z,19.80
2017-08-24T20:39:57.568Z,19.80
2017-08-24T20:42:25.435Z,19.80
2017-08-24T20:44:53.310Z,19.70
2017-08-24T20:47:21.165Z,19.70
2017-08-24T20:49:49.036Z,19.60
2017-08-24T20:52:16.903Z,19.60
2017-08-24T20:54:44.773Z,19.60
2017-08-24T20:57:12.738Z,19.50
2017-08-24T20:59:40.604Z,19.50
2017-08-24T21:02:08.472Z,19.50
2017-08-24T21:04:36.339Z,19.50
2017-08-24T21:07:04.205Z,19.40
2017-08-24T21:09:32.074Z,19.40
2017-08-24T21:11:59.940Z,19.40
2017-08-24T21:14:27.807Z,19.30
2017-08-24T21:16:55.674Z,19.30
2017-08-24T21:19:23.541Z,19.20
2017-08-24T21:21:51.408Z,19.20
2017-08-24T21:24:19.276Z,19.10
2017-08-24T21:26:47.143Z,19.00
2017-08-24T21:29:15.011Z,18.90
2017-08-24T21:31:42.877Z,18.80
2017-08-24T21:34:10.744Z,18.70
2017-08-24T21:36:38.632Z,18.70
2017-08-24T21:39:06.478Z,18.60
2017-08-24T21:41:34.346Z,18.60
2017-08-24T21:44:02.216Z,18.50
2017-08-24T21:46:30.013Z,18.30
2017-08-24T21:48:57.846Z,18.00
2017-08-24T21:51:25.713Z,18.10
2017-08-24T21:53:53.581Z,18.20
2017-08-24T21:56:21.447Z,18.10
2017-08-24T21:58:49.315Z,18.00
2017-08-24T22:01:17.181Z,18.00
2017-08-24T22:03:45.049Z,18.00
2017-08-24T22:06:12.916Z,17.90
2017-08-24T22:08:40.783Z,18.00
2017-08-24T22:11:08.651Z,17.90
2017-08-24T22:13:36.518Z,18.00
2017-08-24T22:16:04.385Z,18.10
2017-08-24T22:18:32.152Z,18.10
2017-08-24T22:21:00.018Z,18.20
2017-08-24T22:23:27.885Z,18.20
2017-08-24T22:25:55.751Z,18.20
2017-08-24T22:28:23.619Z,18.20
2017-08-24T22:30:51.489Z,18.20
2017-08-24T22:33:19.364Z,18.20
2017-08-24T22:35:47.220Z,18.20
2017-08-24T22:38:15.088Z,18.20
2017-08-24T22:40:42.955Z,18.20
2017-08-24T22:43:10.822Z,18.20
2017-08-24T22:45:38.690Z,18.10
2017-08-24T22:48:06.557Z,18.10
2017-08-24T22:50:34.429Z,18.10
2017-08-24T22:53:07.755Z,18.10
2017-08-24T22:55:41.254Z,18.10
2017-08-24T22:58:14.717Z,18.10
2017-08-24T23:00:48.328Z,18.00
2017-08-24T23:03:21.716Z,18.00
2017-08-24T23:05:49.583Z,18.00
2017-08-24T23:08:17.450Z,17.90
2017-08-24T23:10:45.317Z,17.90
2017-08-24T23:13:13.495Z,17.90
2017-08-24T23:15:41.360Z,17.90
2017-08-24T23:18:09.226Z,17.90
2017-08-24T23:20:37.094Z,17.80
2017-08-24T23:23:04.961Z,17.90
2017-08-24T23:25:32.827Z,17.90
2017-08-24T23:28:00.696Z,17.90
2017-08-24T23:30:28.563Z,17.90
2017-08-24T23:32:56.354Z,17.90
2017-08-24T23:35:24.194Z,17.90
2017-08-24T23:37:52.062Z,17.90
2017-08-24T23:40:19.929Z,17.80
2017-08-24T23:42:47.797Z,17.80
2017-08-24T23:45:15.664Z,17.80
2017-08-24T23:47:43.530Z,17.80
2017-08-24T23:50:11.399Z,17.80
2017-08-24T23:52:39.265Z,17.80
2017-08-24T23:55:07.133Z,17.80
2017-08-24T23:57:35.000Z,17.90
